sensor_id;sensor_type;location;lat;lon;timestamp;P1;durP1;ratioP1;P2;durP2;ratioP2
56455;SDS011;42354;53.218;6.564;2023-04-06T00:00:13;17.42;;;10.38;;
56455;SDS011;42354;53.218;6.564;2023-04-06T00:02:39;16.05;;;9.80;;
56455;SDS011;42354;53.218;6.564;2023-04-06T00:05:05;15.43;;;10.00;;
56455;SDS011;42354;53.218;6.564;2023-04-06T00:07:30;16.83;;;9.52;;
56455;SDS011;42354;53.218;6.564;2023-04-06T00:09:58;13.98;;;9.52;;
56455;SDS011;42354;53.218;6.564;2023-04-06T00:12:25;16.00;;;9.43;;
56455;SDS011;42354;53.218;6.564;2023-04-06T00:14:50;17.48;;;9.52;;
56455;SDS011;42354;53.218;6.564;2023-04-06T00:17:15;18.45;;;9.73;;
56455;SDS011;42354;53.218;6.564;2023-04-06T00:19:41;18.02;;;9.65;;
56455;SDS011;42354;53.218;6.564;2023-04-06T00:22:06;21.05;;;10.85;;
56455;SDS011;42354;53.218;6.564;2023-04-06T00:24:32;15.95;;;9.70;;
56455;SDS011;42354;53.218;6.564;2023-04-06T00:27:00;15.13;;;9.73;;
56455;SDS011;42354;53.218;6.564;2023-04-06T00:29:26;22.13;;;10.05;;
56455;SDS011;42354;53.218;6.564;2023-04-06T00:31:51;17.55;;;10.30;;
56455;SDS011;42354;53.218;6.564;2023-04-06T00:34:16;17.95;;;10.20;;
56455;SDS011;42354;53.218;6.564;2023-04-06T00:36:42;18.27;;;9.98;;
56455;SDS011;42354;53.218;6.564;2023-04-06T00:39:10;16.40;;;9.70;;
56455;SDS011;42354;53.218;6.564;2023-04-06T00:41:36;17.40;;;9.02;;
56455;SDS011;42354;53.218;6.564;2023-04-06T00:44:01;17.58;;;9.55;;
56455;SDS011;42354;53.218;6.564;2023-04-06T00:46:26;17.80;;;9.15;;
56455;SDS011;42354;53.218;6.564;2023-04-06T00:48:54;15.95;;;8.77;;
56455;SDS011;42354;53.218;6.564;2023-04-06T00:51:21;15.43;;;9.18;;
56455;SDS011;42354;53.218;6.564;2023-04-06T00:53:47;16.13;;;9.80;;
56455;SDS011;42354;53.218;6.564;2023-04-06T00:56:12;15.82;;;9.10;;
56455;SDS011;42354;53.218;6.564;2023-04-06T00:58:38;18.25;;;9.80;;
56455;SDS011;42354;53.218;6.564;2023-04-06T01:01:03;17.63;;;9.68;;
56455;SDS011;42354;53.218;6.564;2023-04-06T01:03:29;13.32;;;8.50;;
56455;SDS011;42354;53.218;6.564;2023-04-06T01:05:54;21.38;;;9.15;;
56455;SDS011;42354;53.218;6.564;2023-04-06T01:08:23;17.85;;;10.15;;
56455;SDS011;42354;53.218;6.564;2023-04-06T01:10:49;20.20;;;9.88;;
56455;SDS011;42354;53.218;6.564;2023-04-06T01:13:15;17.50;;;10.27;;
56455;SDS011;42354;53.218;6.564;2023-04-06T01:15:40;17.15;;;9.65;;
56455;SDS011;42354;53.218;6.564;2023-04-06T01:18:07;16.52;;;9.43;;
56455;SDS011;42354;53.218;6.564;2023-04-06T01:20:35;20.00;;;10.07;;
56455;SDS011;42354;53.218;6.564;2023-04-06T01:23:00;15.75;;;9.13;;
56455;SDS011;42354;53.218;6.564;2023-04-06T01:25:26;15.63;;;9.80;;
56455;SDS011;42354;53.218;6.564;2023-04-06T01:27:51;17.35;;;9.38;;
56455;SDS011;42354;53.218;6.564;2023-04-06T01:30:16;20.48;;;9.88;;
56455;SDS011;42354;53.218;6.564;2023-04-06T01:32:42;16.48;;;9.38;;
56455;SDS011;42354;53.218;6.564;2023-04-06T01:35:08;18.17;;;10.50;;
56455;SDS011;42354;53.218;6.564;2023-04-06T01:37:34;17.67;;;9.65;;
56455;SDS011;42354;53.218;6.564;2023-04-06T01:39:59;19.17;;;9.80;;
56455;SDS011;42354;53.218;6.564;2023-04-06T01:42:25;18.25;;;9.82;;
56455;SDS011;42354;53.218;6.564;2023-04-06T01:44:51;17.75;;;9.75;;
56455;SDS011;42354;53.218;6.564;2023-04-06T01:47:16;16.50;;;9.85;;
56455;SDS011;42354;53.218;6.564;2023-04-06T01:49:42;18.02;;;10.27;;
56455;SDS011;42354;53.218;6.564;2023-04-06T01:52:07;15.18;;;10.07;;
56455;SDS011;42354;53.218;6.564;2023-04-06T01:54:32;15.48;;;9.32;;
56455;SDS011;42354;53.218;6.564;2023-04-06T01:56:58;16.63;;;10.00;;
56455;SDS011;42354;53.218;6.564;2023-04-06T01:59:23;18.10;;;10.38;;
56455;SDS011;42354;53.218;6.564;2023-04-06T02:01:50;17.52;;;9.98;;
56455;SDS011;42354;53.218;6.564;2023-04-06T02:04:15;19.08;;;10.32;;
56455;SDS011;42354;53.218;6.564;2023-04-06T02:06:40;18.55;;;10.68;;
56455;SDS011;42354;53.218;6.564;2023-04-06T02:09:06;20.88;;;11.18;;
56455;SDS011;42354;53.218;6.564;2023-04-06T02:11:31;22.17;;;12.55;;
56455;SDS011;42354;53.218;6.564;2023-04-06T02:13:56;27.95;;;15.15;;
56455;SDS011;42354;53.218;6.564;2023-04-06T02:16:26;24.00;;;14.82;;
56455;SDS011;42354;53.218;6.564;2023-04-06T02:18:51;23.40;;;13.80;;
56455;SDS011;42354;53.218;6.564;2023-04-06T02:21:16;22.58;;;12.68;;
56455;SDS011;42354;53.218;6.564;2023-04-06T02:23:45;22.23;;;12.48;;
56455;SDS011;42354;53.218;6.564;2023-04-06T02:26:12;21.92;;;12.13;;
56455;SDS011;42354;53.218;6.564;2023-04-06T02:28:37;20.45;;;12.43;;
56455;SDS011;42354;53.218;6.564;2023-04-06T02:31:04;20.38;;;11.30;;
56455;SDS011;42354;53.218;6.564;2023-04-06T02:33:29;18.02;;;10.23;;
56455;SDS011;42354;53.218;6.564;2023-04-06T02:35:55;21.40;;;10.45;;
56455;SDS011;42354;53.218;6.564;2023-04-06T02:38:20;17.70;;;10.27;;
56455;SDS011;42354;53.218;6.564;2023-04-06T02:40:45;17.65;;;9.90;;
56455;SDS011;42354;53.218;6.564;2023-04-06T02:43:11;19.55;;;10.88;;
56455;SDS011;42354;53.218;6.564;2023-04-06T02:45:37;18.52;;;11.00;;
56455;SDS011;42354;53.218;6.564;2023-04-06T02:48:03;19.48;;;11.35;;
56455;SDS011;42354;53.218;6.564;2023-04-06T02:50:28;18.20;;;11.30;;
56455;SDS011;42354;53.218;6.564;2023-04-06T02:52:55;25.88;;;13.63;;
56455;SDS011;42354;53.218;6.564;2023-04-06T02:55:20;19.90;;;12.27;;
56455;SDS011;42354;53.218;6.564;2023-04-06T02:57:45;20.40;;;12.80;;
56455;SDS011;42354;53.218;6.564;2023-04-06T03:00:12;23.60;;;12.90;;
56455;SDS011;42354;53.218;6.564;2023-04-06T03:02:38;22.05;;;14.18;;
56455;SDS011;42354;53.218;6.564;2023-04-06T03:05:03;21.55;;;13.10;;
56455;SDS011;42354;53.218;6.564;2023-04-06T03:07:29;22.80;;;12.40;;
56455;SDS011;42354;53.218;6.564;2023-04-06T03:09:56;23.63;;;12.88;;
56455;SDS011;42354;53.218;6.564;2023-04-06T03:12:21;20.17;;;11.80;;
56455;SDS011;42354;53.218;6.564;2023-04-06T03:14:47;15.95;;;10.20;;
56455;SDS011;42354;53.218;6.564;2023-04-06T03:17:12;20.75;;;10.80;;
56455;SDS011;42354;53.218;6.564;2023-04-06T03:19:38;18.90;;;10.32;;
56455;SDS011;42354;53.218;6.564;2023-04-06T03:22:03;16.55;;;9.90;;
56455;SDS011;42354;53.218;6.564;2023-04-06T03:24:29;18.95;;;10.43;;
56455;SDS011;42354;53.218;6.564;2023-04-06T03:26:54;17.52;;;10.32;;
56455;SDS011;42354;53.218;6.564;2023-04-06T03:29:20;18.40;;;10.80;;
56455;SDS011;42354;53.218;6.564;2023-04-06T03:31:45;16.42;;;10.00;;
56455;SDS011;42354;53.218;6.564;2023-04-06T03:34:10;19.77;;;10.30;;
56455;SDS011;42354;53.218;6.564;2023-04-06T03:36:36;19.15;;;9.68;;
56455;SDS011;42354;53.218;6.564;2023-04-06T03:39:01;19.65;;;9.68;;
56455;SDS011;42354;53.218;6.564;2023-04-06T03:41:26;18.08;;;10.18;;
56455;SDS011;42354;53.218;6.564;2023-04-06T03:43:52;19.20;;;11.10;;
56455;SDS011;42354;53.218;6.564;2023-04-06T03:46:17;16.17;;;9.85;;
56455;SDS011;42354;53.218;6.564;2023-04-06T03:48:45;19.83;;;10.55;;
56455;SDS011;42354;53.218;6.564;2023-04-06T03:51:11;21.05;;;10.60;;
56455;SDS011;42354;53.218;6.564;2023-04-06T03:53:36;19.10;;;10.32;;
56455;SDS011;42354;53.218;6.564;2023-04-06T03:56:02;19.23;;;10.30;;
56455;SDS011;42354;53.218;6.564;2023-04-06T03:58:29;17.73;;;10.75;;
56455;SDS011;42354;53.218;6.564;2023-04-06T04:00:54;17.90;;;10.82;;
56455;SDS011;42354;53.218;6.564;2023-04-06T04:03:19;18.83;;;11.15;;
56455;SDS011;42354;53.218;6.564;2023-04-06T04:05:46;16.98;;;10.82;;
56455;SDS011;42354;53.218;6.564;2023-04-06T04:08:11;20.23;;;10.70;;
56455;SDS011;42354;53.218;6.564;2023-04-06T04:10:37;18.55;;;10.70;;
56455;SDS011;42354;53.218;6.564;2023-04-06T04:13:02;20.63;;;10.20;;
56455;SDS011;42354;53.218;6.564;2023-04-06T04:15:27;17.70;;;10.25;;
56455;SDS011;42354;53.218;6.564;2023-04-06T04:17:53;20.08;;;10.73;;
56455;SDS011;42354;53.218;6.564;2023-04-06T04:20:18;16.83;;;10.20;;
56455;SDS011;42354;53.218;6.564;2023-04-06T04:22:44;16.20;;;9.77;;
56455;SDS011;42354;53.218;6.564;2023-04-06T04:25:09;18.75;;;10.32;;
56455;SDS011;42354;53.218;6.564;2023-04-06T04:27:35;23.20;;;11.02;;
56455;SDS011;42354;53.218;6.564;2023-04-06T04:30:00;22.33;;;10.73;;
56455;SDS011;42354;53.218;6.564;2023-04-06T04:32:26;21.15;;;10.88;;
56455;SDS011;42354;53.218;6.564;2023-04-06T04:34:52;16.73;;;10.25;;
56455;SDS011;42354;53.218;6.564;2023-04-06T04:37:18;18.63;;;10.68;;
56455;SDS011;42354;53.218;6.564;2023-04-06T04:39:44;17.58;;;10.00;;
56455;SDS011;42354;53.218;6.564;2023-04-06T04:42:10;18.27;;;10.93;;
56455;SDS011;42354;53.218;6.564;2023-04-06T04:44:36;16.38;;;10.43;;
56455;SDS011;42354;53.218;6.564;2023-04-06T04:47:01;21.00;;;11.20;;
56455;SDS011;42354;53.218;6.564;2023-04-06T04:49:27;20.17;;;10.80;;
56455;SDS011;42354;53.218;6.564;2023-04-06T04:51:53;19.60;;;10.48;;
56455;SDS011;42354;53.218;6.564;2023-04-06T04:54:18;19.85;;;10.75;;
56455;SDS011;42354;53.218;6.564;2023-04-06T04:56:45;21.95;;;10.95;;
56455;SDS011;42354;53.218;6.564;2023-04-06T04:59:10;20.38;;;10.70;;
56455;SDS011;42354;53.218;6.564;2023-04-06T05:01:36;18.63;;;10.30;;
56455;SDS011;42354;53.218;6.564;2023-04-06T05:04:02;18.27;;;10.77;;
56455;SDS011;42354;53.218;6.564;2023-04-06T05:06:28;20.27;;;10.82;;
56455;SDS011;42354;53.218;6.564;2023-04-06T05:08:53;16.98;;;10.52;;
56455;SDS011;42354;53.218;6.564;2023-04-06T05:11:18;21.00;;;9.95;;
56455;SDS011;42354;53.218;6.564;2023-04-06T05:13:44;18.95;;;10.40;;
56455;SDS011;42354;53.218;6.564;2023-04-06T05:16:10;19.80;;;11.50;;
56455;SDS011;42354;53.218;6.564;2023-04-06T05:18:36;18.70;;;11.27;;
56455;SDS011;42354;53.218;6.564;2023-04-06T05:21:01;20.65;;;10.55;;
56455;SDS011;42354;53.218;6.564;2023-04-06T05:23:26;17.73;;;10.63;;
56455;SDS011;42354;53.218;6.564;2023-04-06T05:25:52;15.43;;;9.85;;
56455;SDS011;42354;53.218;6.564;2023-04-06T05:28:18;19.13;;;9.85;;
56455;SDS011;42354;53.218;6.564;2023-04-06T05:30:44;21.15;;;11.00;;
56455;SDS011;42354;53.218;6.564;2023-04-06T05:33:11;20.48;;;11.00;;
56455;SDS011;42354;53.218;6.564;2023-04-06T05:35:36;17.33;;;10.70;;
56455;SDS011;42354;53.218;6.564;2023-04-06T05:38:01;19.05;;;10.63;;
56455;SDS011;42354;53.218;6.564;2023-04-06T05:40:27;19.33;;;10.55;;
56455;SDS011;42354;53.218;6.564;2023-04-06T05:42:52;16.98;;;9.75;;
56455;SDS011;42354;53.218;6.564;2023-04-06T05:45:18;20.98;;;10.82;;
56455;SDS011;42354;53.218;6.564;2023-04-06T05:47:44;18.23;;;9.95;;
56455;SDS011;42354;53.218;6.564;2023-04-06T05:50:10;17.75;;;9.55;;
56455;SDS011;42354;53.218;6.564;2023-04-06T05:52:36;14.80;;;9.70;;
56455;SDS011;42354;53.218;6.564;2023-04-06T05:55:02;18.15;;;9.95;;
56455;SDS011;42354;53.218;6.564;2023-04-06T05:57:29;21.20;;;9.95;;
56455;SDS011;42354;53.218;6.564;2023-04-06T05:59:54;24.23;;;10.55;;
56455;SDS011;42354;53.218;6.564;2023-04-06T06:02:20;16.27;;;9.90;;
56455;SDS011;42354;53.218;6.564;2023-04-06T06:04:45;17.77;;;9.82;;
56455;SDS011;42354;53.218;6.564;2023-04-06T06:07:11;17.52;;;9.45;;
56455;SDS011;42354;53.218;6.564;2023-04-06T06:09:38;17.95;;;10.05;;
56455;SDS011;42354;53.218;6.564;2023-04-06T06:12:04;17.25;;;10.13;;
56455;SDS011;42354;53.218;6.564;2023-04-06T06:14:29;15.30;;;9.93;;
56455;SDS011;42354;53.218;6.564;2023-04-06T06:16:55;17.05;;;9.43;;
56455;SDS011;42354;53.218;6.564;2023-04-06T06:19:20;17.33;;;9.85;;
56455;SDS011;42354;53.218;6.564;2023-04-06T06:21:45;14.63;;;9.02;;
56455;SDS011;42354;53.218;6.564;2023-04-06T06:24:11;15.65;;;9.32;;
56455;SDS011;42354;53.218;6.564;2023-04-06T06:26:37;17.25;;;9.23;;
56455;SDS011;42354;53.218;6.564;2023-04-06T06:29:04;17.60;;;9.27;;
56455;SDS011;42354;53.218;6.564;2023-04-06T06:31:32;15.23;;;8.98;;
56455;SDS011;42354;53.218;6.564;2023-04-06T06:33:58;16.13;;;9.57;;
56455;SDS011;42354;53.218;6.564;2023-04-06T06:36:23;18.42;;;9.60;;
56455;SDS011;42354;53.218;6.564;2023-04-06T06:38:48;17.55;;;9.65;;
56455;SDS011;42354;53.218;6.564;2023-04-06T06:41:14;16.35;;;9.60;;
56455;SDS011;42354;53.218;6.564;2023-04-06T06:43:40;15.73;;;8.77;;
56455;SDS011;42354;53.218;6.564;2023-04-06T06:46:05;18.02;;;9.23;;
56455;SDS011;42354;53.218;6.564;2023-04-06T06:48:31;15.57;;;9.35;;
56455;SDS011;42354;53.218;6.564;2023-04-06T06:50:56;13.63;;;9.20;;
56455;SDS011;42354;53.218;6.564;2023-04-06T06:53:22;17.75;;;9.80;;
56455;SDS011;42354;53.218;6.564;2023-04-06T06:55:48;16.33;;;9.70;;
56455;SDS011;42354;53.218;6.564;2023-04-06T06:58:14;23.08;;;10.18;;
56455;SDS011;42354;53.218;6.564;2023-04-06T07:00:40;14.75;;;9.38;;
56455;SDS011;42354;53.218;6.564;2023-04-06T07:03:05;16.88;;;10.40;;
56455;SDS011;42354;53.218;6.564;2023-04-06T07:05:31;17.17;;;9.40;;
56455;SDS011;42354;53.218;6.564;2023-04-06T07:07:58;19.65;;;9.88;;
56455;SDS011;42354;53.218;6.564;2023-04-06T07:10:23;15.50;;;9.82;;
56455;SDS011;42354;53.218;6.564;2023-04-06T07:12:49;15.90;;;9.38;;
56455;SDS011;42354;53.218;6.564;2023-04-06T07:15:14;15.18;;;9.60;;
56455;SDS011;42354;53.218;6.564;2023-04-06T07:17:40;17.23;;;9.50;;
56455;SDS011;42354;53.218;6.564;2023-04-06T07:20:10;15.35;;;9.77;;
56455;SDS011;42354;53.218;6.564;2023-04-06T07:22:36;14.35;;;9.48;;
56455;SDS011;42354;53.218;6.564;2023-04-06T07:25:02;13.63;;;8.75;;
56455;SDS011;42354;53.218;6.564;2023-04-06T07:27:29;16.08;;;9.60;;
56455;SDS011;42354;53.218;6.564;2023-04-06T07:29:55;28.73;;;9.85;;
56455;SDS011;42354;53.218;6.564;2023-04-06T07:32:21;15.52;;;10.23;;
56455;SDS011;42354;53.218;6.564;2023-04-06T07:34:46;14.60;;;9.32;;
56455;SDS011;42354;53.218;6.564;2023-04-06T07:37:12;17.60;;;9.85;;
56455;SDS011;42354;53.218;6.564;2023-04-06T07:39:39;16.00;;;9.43;;
56455;SDS011;42354;53.218;6.564;2023-04-06T07:42:07;16.40;;;10.13;;
56455;SDS011;42354;53.218;6.564;2023-04-06T07:44:33;17.30;;;9.65;;
56455;SDS011;42354;53.218;6.564;2023-04-06T07:46:58;21.15;;;10.02;;
56455;SDS011;42354;53.218;6.564;2023-04-06T07:49:23;19.90;;;9.63;;
56455;SDS011;42354;53.218;6.564;2023-04-06T07:51:49;13.35;;;9.07;;
56455;SDS011;42354;53.218;6.564;2023-04-06T07:54:14;13.82;;;9.85;;
56455;SDS011;42354;53.218;6.564;2023-04-06T07:56:39;14.15;;;9.23;;
56455;SDS011;42354;53.218;6.564;2023-04-06T07:59:05;14.40;;;9.60;;
56455;SDS011;42354;53.218;6.564;2023-04-06T08:01:30;14.48;;;9.45;;
56455;SDS011;42354;53.218;6.564;2023-04-06T08:03:56;14.77;;;9.65;;
56455;SDS011;42354;53.218;6.564;2023-04-06T08:06:23;15.68;;;9.55;;
56455;SDS011;42354;53.218;6.564;2023-04-06T08:08:48;13.68;;;9.32;;
56455;SDS011;42354;53.218;6.564;2023-04-06T08:11:14;16.52;;;10.77;;
56455;SDS011;42354;53.218;6.564;2023-04-06T08:13:39;17.15;;;10.23;;
56455;SDS011;42354;53.218;6.564;2023-04-06T08:16:04;15.23;;;9.88;;
56455;SDS011;42354;53.218;6.564;2023-04-06T08:18:30;15.98;;;8.98;;
56455;SDS011;42354;53.218;6.564;2023-04-06T08:20:55;13.20;;;9.35;;
56455;SDS011;42354;53.218;6.564;2023-04-06T08:23:21;17.48;;;10.02;;
56455;SDS011;42354;53.218;6.564;2023-04-06T08:25:47;17.30;;;9.70;;
56455;SDS011;42354;53.218;6.564;2023-04-06T08:28:12;15.52;;;10.50;;
56455;SDS011;42354;53.218;6.564;2023-04-06T08:30:41;16.55;;;10.50;;
56455;SDS011;42354;53.218;6.564;2023-04-06T08:33:07;14.93;;;10.15;;
56455;SDS011;42354;53.218;6.564;2023-04-06T08:35:33;15.00;;;10.15;;
56455;SDS011;42354;53.218;6.564;2023-04-06T08:37:58;16.38;;;10.15;;
56455;SDS011;42354;53.218;6.564;2023-04-06T08:40:24;15.43;;;9.80;;
56455;SDS011;42354;53.218;6.564;2023-04-06T08:42:50;14.82;;;9.95;;
56455;SDS011;42354;53.218;6.564;2023-04-06T08:45:19;14.60;;;9.98;;
56455;SDS011;42354;53.218;6.564;2023-04-06T08:47:46;14.07;;;9.38;;
56455;SDS011;42354;53.218;6.564;2023-04-06T08:50:13;17.48;;;9.38;;
56455;SDS011;42354;53.218;6.564;2023-04-06T08:52:44;13.60;;;9.57;;
56455;SDS011;42354;53.218;6.564;2023-04-06T08:55:12;16.77;;;9.60;;
56455;SDS011;42354;53.218;6.564;2023-04-06T08:57:37;19.92;;;10.10;;
56455;SDS011;42354;53.218;6.564;2023-04-06T09:00:03;16.45;;;9.60;;
56455;SDS011;42354;53.218;6.564;2023-04-06T09:02:31;18.90;;;9.65;;
56455;SDS011;42354;53.218;6.564;2023-04-06T09:04:57;14.38;;;9.60;;
56455;SDS011;42354;53.218;6.564;2023-04-06T09:07:24;14.88;;;9.27;;
56455;SDS011;42354;53.218;6.564;2023-04-06T09:09:50;14.82;;;9.23;;
56455;SDS011;42354;53.218;6.564;2023-04-06T09:12:23;15.10;;;9.90;;
56455;SDS011;42354;53.218;6.564;2023-04-06T09:17:23;18.33;;;10.00;;
56455;SDS011;42354;53.218;6.564;2023-04-06T09:22:15;17.33;;;9.77;;
56455;SDS011;42354;53.218;6.564;2023-04-06T09:24:49;15.02;;;9.40;;
56455;SDS011;42354;53.218;6.564;2023-04-06T09:27:16;14.27;;;9.80;;
56455;SDS011;42354;53.218;6.564;2023-04-06T09:29:43;14.85;;;9.68;;
56455;SDS011;42354;53.218;6.564;2023-04-06T09:32:09;14.25;;;9.38;;
56455;SDS011;42354;53.218;6.564;2023-04-06T09:34:39;14.45;;;9.93;;
56455;SDS011;42354;53.218;6.564;2023-04-06T09:37:14;17.20;;;10.05;;
56455;SDS011;42354;53.218;6.564;2023-04-06T09:39:44;18.02;;;10.55;;
56455;SDS011;42354;53.218;6.564;2023-04-06T09:42:11;20.23;;;10.00;;
56455;SDS011;42354;53.218;6.564;2023-04-06T09:44:47;15.35;;;9.30;;
56455;SDS011;42354;53.218;6.564;2023-04-06T09:47:13;19.92;;;10.05;;
56455;SDS011;42354;53.218;6.564;2023-04-06T09:49:40;18.70;;;10.15;;
56455;SDS011;42354;53.218;6.564;2023-04-06T09:52:10;15.75;;;10.02;;
56455;SDS011;42354;53.218;6.564;2023-04-06T09:54:37;17.52;;;10.75;;
56455;SDS011;42354;53.218;6.564;2023-04-06T09:59:41;15.07;;;9.88;;
56455;SDS011;42354;53.218;6.564;2023-04-06T10:02:25;14.93;;;10.25;;
56455;SDS011;42354;53.218;6.564;2023-04-06T10:05:16;17.35;;;10.50;;
56455;SDS011;42354;53.218;6.564;2023-04-06T10:07:57;17.65;;;10.65;;
56455;SDS011;42354;53.218;6.564;2023-04-06T10:10:25;19.65;;;11.35;;
56455;SDS011;42354;53.218;6.564;2023-04-06T10:12:51;20.23;;;11.18;;
56455;SDS011;42354;53.218;6.564;2023-04-06T10:15:18;19.02;;;11.70;;
56455;SDS011;42354;53.218;6.564;2023-04-06T10:17:44;17.50;;;11.18;;
56455;SDS011;42354;53.218;6.564;2023-04-06T10:20:14;19.10;;;11.70;;
56455;SDS011;42354;53.218;6.564;2023-04-06T10:25:26;18.48;;;11.65;;
56455;SDS011;42354;53.218;6.564;2023-04-06T10:28:08;24.57;;;12.57;;
56455;SDS011;42354;53.218;6.564;2023-04-06T10:30:34;19.70;;;11.93;;
56455;SDS011;42354;53.218;6.564;2023-04-06T10:33:00;17.88;;;11.35;;
56455;SDS011;42354;53.218;6.564;2023-04-06T10:35:44;20.45;;;12.60;;
56455;SDS011;42354;53.218;6.564;2023-04-06T10:38:10;26.90;;;13.90;;
56455;SDS011;42354;53.218;6.564;2023-04-06T10:40:39;20.13;;;12.73;;
56455;SDS011;42354;53.218;6.564;2023-04-06T10:45:39;23.13;;;14.18;;
56455;SDS011;42354;53.218;6.564;2023-04-06T10:50:41;23.52;;;15.02;;
56455;SDS011;42354;53.218;6.564;2023-04-06T10:53:19;22.88;;;14.70;;
56455;SDS011;42354;53.218;6.564;2023-04-06T10:55:47;23.17;;;14.75;;
56455;SDS011;42354;53.218;6.564;2023-04-06T10:58:15;27.80;;;17.77;;
56455;SDS011;42354;53.218;6.564;2023-04-06T11:00:47;28.42;;;18.77;;
56455;SDS011;42354;53.218;6.564;2023-04-06T11:05:43;33.95;;;19.88;;
56455;SDS011;42354;53.218;6.564;2023-04-06T11:08:25;35.63;;;20.45;;
56455;SDS011;42354;53.218;6.564;2023-04-06T11:11:03;33.75;;;20.80;;
56455;SDS011;42354;53.218;6.564;2023-04-06T11:13:37;37.05;;;21.30;;
56455;SDS011;42354;53.218;6.564;2023-04-06T11:16:14;35.17;;;21.17;;
56455;SDS011;42354;53.218;6.564;2023-04-06T11:18:57;36.03;;;20.00;;
56455;SDS011;42354;53.218;6.564;2023-04-06T11:21:36;32.00;;;19.73;;
56455;SDS011;42354;53.218;6.564;2023-04-06T11:24:13;36.30;;;23.08;;
56455;SDS011;42354;53.218;6.564;2023-04-06T11:26:52;37.17;;;22.27;;
56455;SDS011;42354;53.218;6.564;2023-04-06T11:29:20;42.40;;;22.05;;
56455;SDS011;42354;53.218;6.564;2023-04-06T11:31:54;43.53;;;25.70;;
56455;SDS011;42354;53.218;6.564;2023-04-06T11:34:24;39.83;;;24.27;;
56455;SDS011;42354;53.218;6.564;2023-04-06T11:37:00;36.97;;;22.70;;
56455;SDS011;42354;53.218;6.564;2023-04-06T11:39:28;35.22;;;22.42;;
56455;SDS011;42354;53.218;6.564;2023-04-06T11:41:55;37.30;;;22.52;;
56455;SDS011;42354;53.218;6.564;2023-04-06T11:46:58;38.78;;;24.45;;
56455;SDS011;42354;53.218;6.564;2023-04-06T11:49:30;39.05;;;24.02;;
56455;SDS011;42354;53.218;6.564;2023-04-06T11:51:57;39.33;;;23.48;;
56455;SDS011;42354;53.218;6.564;2023-04-06T11:54:41;35.95;;;23.52;;
56455;SDS011;42354;53.218;6.564;2023-04-06T11:57:11;36.50;;;23.17;;
56455;SDS011;42354;53.218;6.564;2023-04-06T11:59:36;41.83;;;24.15;;
56455;SDS011;42354;53.218;6.564;2023-04-06T12:02:02;37.03;;;22.90;;
56455;SDS011;42354;53.218;6.564;2023-04-06T12:04:28;35.85;;;23.08;;
56455;SDS011;42354;53.218;6.564;2023-04-06T12:06:53;41.05;;;23.00;;
56455;SDS011;42354;53.218;6.564;2023-04-06T12:09:19;39.22;;;22.35;;
56455;SDS011;42354;53.218;6.564;2023-04-06T12:11:45;37.47;;;22.88;;
56455;SDS011;42354;53.218;6.564;2023-04-06T12:14:11;39.78;;;23.83;;
56455;SDS011;42354;53.218;6.564;2023-04-06T12:16:37;43.40;;;23.42;;
56455;SDS011;42354;53.218;6.564;2023-04-06T12:19:03;38.47;;;22.98;;
56455;SDS011;42354;53.218;6.564;2023-04-06T12:21:29;43.75;;;23.98;;
56455;SDS011;42354;53.218;6.564;2023-04-06T12:23:56;40.05;;;22.52;;
56455;SDS011;42354;53.218;6.564;2023-04-06T12:26:25;32.78;;;21.92;;
56455;SDS011;42354;53.218;6.564;2023-04-06T12:28:52;39.53;;;23.75;;
56455;SDS011;42354;53.218;6.564;2023-04-06T12:31:17;37.38;;;23.20;;
56455;SDS011;42354;53.218;6.564;2023-04-06T12:33:46;39.15;;;22.40;;
56455;SDS011;42354;53.218;6.564;2023-04-06T12:36:14;34.72;;;22.40;;
56455;SDS011;42354;53.218;6.564;2023-04-06T12:38:40;39.75;;;23.35;;
56455;SDS011;42354;53.218;6.564;2023-04-06T12:41:06;36.65;;;23.00;;
56455;SDS011;42354;53.218;6.564;2023-04-06T12:43:32;37.75;;;23.33;;
56455;SDS011;42354;53.218;6.564;2023-04-06T12:45:58;39.58;;;23.42;;
56455;SDS011;42354;53.218;6.564;2023-04-06T12:48:24;37.38;;;23.85;;
56455;SDS011;42354;53.218;6.564;2023-04-06T12:50:54;49.50;;;24.02;;
56455;SDS011;42354;53.218;6.564;2023-04-06T12:53:22;38.22;;;24.10;;
56455;SDS011;42354;53.218;6.564;2023-04-06T12:55:48;45.15;;;24.23;;
56455;SDS011;42354;53.218;6.564;2023-04-06T12:58:15;38.28;;;22.83;;
56455;SDS011;42354;53.218;6.564;2023-04-06T13:00:41;35.85;;;22.30;;
56455;SDS011;42354;53.218;6.564;2023-04-06T13:03:07;36.30;;;22.27;;
56455;SDS011;42354;53.218;6.564;2023-04-06T13:05:32;38.53;;;22.40;;
56455;SDS011;42354;53.218;6.564;2023-04-06T13:07:57;35.03;;;22.55;;
56455;SDS011;42354;53.218;6.564;2023-04-06T13:10:23;40.17;;;23.48;;
56455;SDS011;42354;53.218;6.564;2023-04-06T13:12:48;35.40;;;22.65;;
56455;SDS011;42354;53.218;6.564;2023-04-06T13:15:16;39.00;;;23.42;;
56455;SDS011;42354;53.218;6.564;2023-04-06T13:17:42;36.15;;;22.23;;
56455;SDS011;42354;53.218;6.564;2023-04-06T13:20:07;37.17;;;22.75;;
56455;SDS011;42354;53.218;6.564;2023-04-06T13:22:33;48.15;;;23.63;;
56455;SDS011;42354;53.218;6.564;2023-04-06T13:24:59;36.75;;;23.15;;
56455;SDS011;42354;53.218;6.564;2023-04-06T13:27:24;40.17;;;23.42;;
56455;SDS011;42354;53.218;6.564;2023-04-06T13:29:52;38.42;;;23.92;;
56455;SDS011;42354;53.218;6.564;2023-04-06T13:32:17;39.25;;;23.10;;
56455;SDS011;42354;53.218;6.564;2023-04-06T13:34:43;36.60;;;22.20;;
56455;SDS011;42354;53.218;6.564;2023-04-06T13:37:11;34.15;;;22.23;;
56455;SDS011;42354;53.218;6.564;2023-04-06T13:39:38;38.72;;;23.98;;
56455;SDS011;42354;53.218;6.564;2023-04-06T13:42:03;39.15;;;22.38;;
56455;SDS011;42354;53.218;6.564;2023-04-06T13:44:28;37.65;;;22.27;;
56455;SDS011;42354;53.218;6.564;2023-04-06T13:46:54;36.40;;;22.42;;
56455;SDS011;42354;53.218;6.564;2023-04-06T13:49:19;40.20;;;24.00;;
56455;SDS011;42354;53.218;6.564;2023-04-06T13:51:45;39.80;;;22.10;;
56455;SDS011;42354;53.218;6.564;2023-04-06T13:54:10;35.55;;;22.02;;
56455;SDS011;42354;53.218;6.564;2023-04-06T13:56:36;35.10;;;21.58;;
56455;SDS011;42354;53.218;6.564;2023-04-06T13:59:02;31.65;;;18.92;;
56455;SDS011;42354;53.218;6.564;2023-04-06T14:01:28;27.70;;;17.85;;
56455;SDS011;42354;53.218;6.564;2023-04-06T14:03:55;27.58;;;17.40;;
56455;SDS011;42354;53.218;6.564;2023-04-06T14:06:21;32.97;;;18.45;;
56455;SDS011;42354;53.218;6.564;2023-04-06T14:08:47;27.75;;;16.02;;
56455;SDS011;42354;53.218;6.564;2023-04-06T14:11:12;29.30;;;16.63;;
56455;SDS011;42354;53.218;6.564;2023-04-06T14:13:39;27.08;;;16.33;;
56455;SDS011;42354;53.218;6.564;2023-04-06T14:16:05;26.42;;;16.27;;
56455;SDS011;42354;53.218;6.564;2023-04-06T14:18:31;27.33;;;16.05;;
56455;SDS011;42354;53.218;6.564;2023-04-06T14:20:59;25.08;;;16.35;;
56455;SDS011;42354;53.218;6.564;2023-04-06T14:23:25;26.13;;;15.27;;
56455;SDS011;42354;53.218;6.564;2023-04-06T14:26:14;27.25;;;15.82;;
56455;SDS011;42354;53.218;6.564;2023-04-06T14:28:41;27.05;;;16.15;;
56455;SDS011;42354;53.218;6.564;2023-04-06T14:31:15;25.63;;;16.20;;
56455;SDS011;42354;53.218;6.564;2023-04-06T14:33:42;24.17;;;15.25;;
56455;SDS011;42354;53.218;6.564;2023-04-06T14:36:07;28.27;;;16.50;;
56455;SDS011;42354;53.218;6.564;2023-04-06T14:38:33;25.33;;;16.67;;
56455;SDS011;42354;53.218;6.564;2023-04-06T14:40:59;26.73;;;16.20;;
56455;SDS011;42354;53.218;6.564;2023-04-06T14:43:26;27.50;;;15.88;;